createdAt,value
2017-09-12T00:01:09.266Z,36.80
2017-09-12T00:03:37.824Z,35.63
2017-09-12T00:06:06.366Z,34.00
2017-09-12T00:08:35.992Z,36.70
2017-09-12T00:11:04.032Z,38.73
2017-09-12T00:13:33.239Z,33.10
2017-09-12T00:16:02.628Z,32.07
2017-09-12T00:18:31.314Z,32.63
2017-09-12T00:20:59.987Z,32.43
2017-09-12T00:23:28.687Z,31.10
2017-09-12T00:25:57.316Z,30.77
2017-09-12T00:28:26.051Z,31.70
2017-09-12T00:30:55.147Z,29.60
2017-09-12T00:33:23.375Z,31.37
2017-09-12T00:35:52.059Z,30.93
2017-09-12T00:38:21.006Z,30.13
2017-09-12T00:40:49.791Z,31.13
2017-09-12T00:43:18.570Z,31.43
2017-09-12T00:45:47.283Z,29.30
2017-09-12T00:48:16.019Z,28.20
2017-09-12T00:50:44.747Z,28.03
2017-09-12T00:53:13.952Z,27.60
2017-09-12T00:55:43.047Z,27.43
2017-09-12T00:58:13.471Z,28.60
2017-09-12T01:00:42.770Z,28.57
2017-09-12T01:03:11.563Z,22.30
2017-09-12T01:05:40.352Z,22.57
2017-09-12T01:08:08.715Z,21.37
2017-09-12T01:10:37.426Z,21.30
2017-09-12T01:13:06.106Z,19.10
2017-09-12T01:15:35.091Z,15.40
2017-09-12T01:18:03.714Z,16.90
2017-09-12T01:20:33.292Z,15.30
2017-09-12T01:23:01.995Z,13.30
2017-09-12T01:25:30.667Z,12.30
2017-09-12T01:27:59.363Z,12.33
2017-09-12T01:30:28.252Z,12.30
2017-09-12T01:32:57.133Z,11.63
2017-09-12T01:35:25.759Z,12.50
2017-09-12T01:37:55.543Z,12.10
2017-09-12T01:40:24.279Z,11.60
2017-09-12T01:42:52.868Z,11.20
2017-09-12T01:45:21.759Z,10.93
2017-09-12T01:47:50.398Z,12.20
2017-09-12T01:50:19.283Z,11.00
2017-09-12T01:52:48.486Z,10.80
2017-09-12T01:55:19.019Z,11.53
2017-09-12T01:57:48.527Z,11.00
2017-09-12T02:00:17.211Z,12.40
2017-09-12T02:02:45.999Z,11.50
2017-09-12T02:05:15.039Z,11.57
2017-09-12T02:07:43.867Z,11.87
2017-09-12T02:10:12.663Z,10.43
2017-09-12T02:12:41.304Z,12.37
2017-09-12T02:15:10.056Z,11.57
2017-09-12T02:17:38.734Z,11.73
2017-09-12T02:20:07.832Z,11.10
2017-09-12T02:22:36.722Z,12.60
2017-09-12T02:25:04.971Z,11.47
2017-09-12T02:27:33.292Z,12.13
2017-09-12T02:30:01.526Z,13.13
2017-09-12T02:32:29.763Z,11.20
2017-09-12T02:34:58.251Z,12.80
2017-09-12T02:37:27.404Z,11.70
2017-09-12T02:39:55.651Z,12.70
2017-09-12T02:42:23.967Z,11.47
2017-09-12T02:44:52.187Z,14.33
2017-09-12T02:47:21.167Z,12.40
2017-09-12T02:49:50.459Z,14.33
2017-09-12T02:52:19.436Z,12.73
2017-09-12T02:54:47.692Z,13.13
2017-09-12T02:57:16.466Z,13.77
2017-09-12T02:59:49.735Z,13.37
2017-09-12T03:02:18.867Z,15.30
2017-09-12T03:04:47.107Z,14.30
2017-09-12T03:07:16.091Z,14.30
2017-09-12T03:09:45.827Z,13.90
2017-09-12T03:12:14.567Z,13.83
2017-09-12T03:14:43.402Z,14.37
2017-09-12T03:17:12.298Z,16.23
2017-09-12T03:19:41.123Z,12.97
2017-09-12T03:22:09.799Z,14.40
2017-09-12T03:24:39.047Z,15.20
2017-09-12T03:27:08.530Z,15.77
2017-09-12T03:29:37.413Z,16.20
2017-09-12T03:32:06.439Z,15.73
2017-09-12T03:34:35.930Z,15.23
2017-09-12T03:37:04.820Z,14.87
2017-09-12T03:39:34.015Z,14.73
2017-09-12T03:42:02.855Z,14.47
2017-09-12T03:44:31.686Z,15.33
2017-09-12T03:47:00.380Z,14.80
2017-09-12T03:49:28.926Z,15.83
2017-09-12T03:51:57.554Z,13.10
2017-09-12T03:54:26.755Z,15.23
2017-09-12T03:56:55.751Z,15.33
2017-09-12T03:59:25.056Z,13.93
2017-09-12T04:01:53.956Z,17.33
2017-09-12T04:04:22.783Z,15.83
2017-09-12T04:06:51.118Z,15.63
2017-09-12T04:09:19.907Z,15.50
2017-09-12T04:11:48.695Z,15.20
2017-09-12T04:14:17.483Z,15.30
2017-09-12T04:16:46.579Z,16.00
2017-09-12T04:19:15.458Z,15.73
2017-09-12T04:21:44.160Z,15.13
2017-09-12T04:24:13.871Z,15.53
2017-09-12T04:26:42.764Z,15.87
2017-09-12T04:29:11.598Z,15.17
2017-09-12T04:31:40.696Z,14.27
2017-09-12T04:34:09.635Z,14.73
2017-09-12T04:36:38.251Z,14.67
2017-09-12T04:39:08.038Z,14.37
2017-09-12T04:41:36.926Z,14.10
2017-09-12T04:44:05.751Z,13.27
2017-09-12T04:46:35.639Z,12.63
2017-09-12T04:49:04.518Z,13.67
2017-09-12T04:51:33.208Z,12.83
2017-09-12T04:54:01.910Z,14.37
2017-09-12T04:56:30.799Z,15.30
2017-09-12T04:58:59.687Z,14.37
2017-09-12T05:01:28.886Z,15.07
2017-09-12T05:03:57.678Z,13.67
2017-09-12T05:06:26.515Z,15.03
2017-09-12T05:08:55.612Z,14.83
2017-09-12T05:11:24.547Z,16.50
2017-09-12T05:13:53.171Z,16.57
2017-09-12T05:16:22.855Z,15.27
2017-09-12T05:18:51.732Z,14.07
2017-09-12T05:21:19.959Z,14.50
2017-09-12T05:23:49.494Z,15.23
2017-09-12T05:26:17.743Z,14.30
2017-09-12T05:28:47.158Z,15.17
2017-09-12T05:31:15.491Z,13.30
2017-09-12T05:33:44.302Z,14.03
2017-09-12T05:36:13.787Z,15.00
2017-09-12T05:38:42.728Z,14.57
2017-09-12T05:41:11.665Z,14.60
2017-09-12T05:43:40.553Z,14.17
2017-09-12T05:46:09.258Z,13.73
2017-09-12T05:48:38.743Z,13.85
2017-09-12T05:51:07.532Z,13.73
2017-09-12T05:53:36.291Z,14.65
2017-09-12T05:56:05.022Z,13.25
2017-09-12T05:58:34.431Z,12.70
2017-09-12T06:01:03.226Z,13.18
2017-09-12T06:03:33.007Z,13.00
2017-09-12T06:06:01.286Z,12.77
2017-09-12T06:08:30.207Z,13.53
2017-09-12T06:10:59.048Z,13.47
2017-09-12T06:13:27.770Z,14.00
2017-09-12T06:15:56.603Z,12.60
2017-09-12T06:18:26.191Z,13.00
2017-09-12T06:20:54.544Z,12.93
2017-09-12T06:23:23.359Z,12.53
2017-09-12T06:25:52.039Z,14.30
2017-09-12T06:28:20.775Z,13.17
2017-09-12T06:30:49.780Z,14.13
2017-09-12T06:33:18.709Z,14.13
2017-09-12T06:35:47.334Z,13.37
2017-09-12T06:38:17.011Z,12.10
2017-09-12T06:40:45.784Z,14.60
2017-09-12T06:43:14.011Z,13.88
2017-09-12T06:45:43.492Z,13.50
2017-09-12T06:48:12.330Z,13.57
2017-09-12T06:50:41.059Z,12.37
2017-09-12T06:53:09.544Z,12.68
2017-09-12T06:55:38.169Z,12.40
2017-09-12T06:58:06.666Z,12.77
2017-09-12T07:00:35.616Z,13.02
2017-09-12T07:03:04.248Z,12.02
2017-09-12T07:05:33.271Z,12.18
2017-09-12T07:08:02.043Z,12.63
2017-09-12T07:10:30.716Z,12.68
2017-09-12T07:12:59.463Z,13.40
2017-09-12T07:15:28.971Z,15.70
2017-09-12T07:17:57.644Z,13.67
2017-09-12T07:20:26.443Z,13.57
2017-09-12T07:22:55.283Z,14.53
2017-09-12T07:25:24.205Z,12.67
2017-09-12T07:27:52.836Z,12.33
2017-09-12T07:30:22.565Z,14.40
2017-09-12T07:32:51.455Z,12.00
2017-09-12T07:35:20.150Z,13.30
2017-09-12T07:37:48.895Z,12.97
2017-09-12T07:40:17.590Z,12.20
2017-09-12T07:42:47.006Z,12.50
2017-09-12T07:45:16.898Z,11.87
2017-09-12T07:47:45.643Z,11.87
2017-09-12T07:50:14.560Z,11.30
2017-09-12T07:52:43.537Z,12.17
2017-09-12T07:55:12.027Z,12.20
2017-09-12T07:57:40.744Z,11.13
2017-09-12T08:00:15.052Z,12.77
2017-09-12T08:02:43.567Z,11.50
2017-09-12T08:05:12.215Z,11.37
2017-09-12T08:07:41.340Z,12.90
2017-09-12T08:10:10.759Z,11.83
2017-09-12T08:12:40.107Z,13.10
2017-09-12T08:15:10.920Z,10.80
2017-09-12T08:17:39.440Z,12.73
2017-09-12T08:20:08.235Z,11.33
2017-09-12T08:22:36.675Z,12.00
2017-09-12T08:25:05.342Z,11.30
2017-09-12T08:27:34.904Z,12.13
2017-09-12T08:30:03.223Z,12.13
2017-09-12T08:32:32.199Z,11.10
2017-09-12T08:35:00.419Z,12.20
2017-09-12T08:37:28.718Z,10.80
2017-09-12T08:39:56.951Z,12.90
2017-09-12T08:42:26.066Z,11.90
2017-09-12T08:44:54.501Z,12.50
2017-09-12T08:47:22.719Z,11.57
2017-09-12T08:49:50.945Z,12.20
2017-09-12T08:52:19.254Z,12.60
2017-09-12T08:54:48.231Z,12.20
2017-09-12T08:57:16.425Z,12.00
2017-09-12T08:59:46.145Z,12.40
2017-09-12T09:02:15.474Z,10.73
2017-09-12T09:04:43.772Z,11.10
2017-09-12T09:07:12.100Z,12.00
2017-09-12T09:09:41.257Z,11.63
2017-09-12T09:12:09.445Z,12.97
2017-09-12T09:14:37.688Z,10.07
2017-09-12T09:17:06.487Z,11.20
2017-09-12T09:19:35.329Z,13.27
2017-09-12T09:22:05.172Z,16.47
2017-09-12T09:24:33.332Z,15.30
2017-09-12T09:27:02.692Z,13.53
2017-09-12T09:29:31.656Z,13.40
2017-09-12T09:32:00.404Z,15.60
2017-09-12T09:34:29.752Z,12.20
2017-09-12T09:36:58.776Z,15.33
2017-09-12T09:39:26.940Z,13.50
2017-09-12T09:41:56.316Z,13.90
2017-09-12T09:44:25.134Z,14.07
2017-09-12T09:46:53.324Z,13.00
2017-09-12T09:49:22.082Z,12.90
2017-09-12T09:51:51.140Z,13.80
2017-09-12T09:54:20.718Z,13.60
2017-09-12T09:56:49.473Z,12.80
2017-09-12T09:59:17.712Z,13.07
2017-09-12T10:01:47.295Z,12.60
2017-09-12T10:04:16.232Z,14.27
2017-09-12T10:06:45.165Z,11.70
2017-09-12T10:09:14.184Z,14.90
2017-09-12T10:11:43.180Z,12.53
2017-09-12T10:14:12.008Z,13.30
2017-09-12T10:16:40.408Z,12.60
2017-09-12T10:19:09.013Z,15.20
2017-09-12T10:21:37.800Z,14.53
2017-09-12T10:24:06.472Z,14.00
2017-09-12T10:26:35.116Z,13.77
2017-09-12T10:29:04.912Z,14.50
2017-09-12T10:31:33.631Z,12.73
2017-09-12T10:34:02.442Z,14.40
2017-09-12T10:36:31.120Z,14.67
2017-09-12T10:38:59.765Z,15.00
2017-09-12T10:41:28.384Z,14.50
2017-09-12T10:43:58.071Z,16.00
2017-09-12T10:46:27.324Z,16.00
2017-09-12T10:48:55.928Z,14.67
2017-09-12T10:51:24.708Z,16.47
2017-09-12T10:53:52.761Z,15.30
2017-09-12T10:56:21.400Z,16.87
2017-09-12T10:58:50.172Z,16.30
2017-09-12T11:01:18.905Z,18.10
2017-09-12T11:03:47.360Z,16.50
2017-09-12T11:06:16.120Z,15.43
2017-09-12T11:08:44.799Z,16.23
2017-09-12T11:11:13.171Z,17.03
2017-09-12T11:13:42.204Z,16.10
2017-09-12T11:16:10.867Z,17.07
2017-09-12T11:18:39.684Z,17.03
2017-09-12T11:21:08.548Z,16.70
2017-09-12T11:23:37.321Z,16.00
2017-09-12T11:26:05.808Z,15.83
2017-09-12T11:28:34.420Z,16.47
2017-09-12T11:31:03.052Z,16.60
2017-09-12T11:33:31.456Z,15.20
2017-09-12T11:36:00.876Z,26.83
2017-09-12T11:38:29.359Z,16.37
2017-09-12T11:40:58.045Z,18.27
2017-09-12T11:43:26.821Z,15.10
2017-09-12T11:45:55.308Z,15.73
2017-09-12T11:48:23.932Z,17.10
2017-09-12T11:50:53.313Z,16.80
2017-09-12T11:53:21.852Z,15.80
2017-09-12T11:55:50.666Z,14.27
2017-09-12T11:58:19.227Z,16.80
2017-09-12T12:00:47.752Z,15.40
2017-09-12T12:03:16.432Z,15.03
2017-09-12T12:05:45.284Z,15.87
2017-09-12T12:08:14.661Z,15.83
2017-09-12T12:10:43.302Z,16.23
2017-09-12T12:13:12.411Z,15.27
2017-09-12T12:15:41.507Z,13.67
2017-09-12T12:18:10.136Z,15.80
2017-09-12T12:20:39.821Z,15.97
2017-09-12T12:23:08.799Z,15.10
2017-09-12T12:25:37.032Z,15.27
2017-09-12T12:28:05.972Z,15.23
2017-09-12T12:30:34.767Z,16.50
2017-09-12T12:33:03.708Z,16.07
2017-09-12T12:35:32.655Z,14.60
2017-09-12T12:38:01.536Z,16.10
2017-09-12T12:40:29.779Z,15.63
2017-09-12T12:42:58.715Z,15.40
2017-09-12T12:45:27.511Z,14.93
2017-09-12T12:47:56.718Z,15.83
2017-09-12T12:50:25.802Z,14.90
2017-09-12T12:52:54.044Z,15.47
2017-09-12T12:55:22.279Z,14.10
2017-09-12T12:57:51.822Z,16.03
2017-09-12T13:00:20.503Z,15.20
2017-09-12T13:02:49.239Z,14.07
2017-09-12T13:05:18.335Z,16.27
2017-09-12T13:07:47.113Z,15.83
2017-09-12T13:10:15.635Z,15.37
2017-09-12T13:12:45.529Z,15.87
2017-09-12T13:15:14.931Z,14.83
2017-09-12T13:17:44.355Z,15.17
2017-09-12T13:20:13.991Z,15.20
2017-09-12T13:22:42.820Z,17.60
2017-09-12T13:25:11.058Z,16.10
2017-09-12T13:27:39.907Z,14.97
2017-09-12T13:30:08.131Z,15.80
2017-09-12T13:32:36.776Z,15.57
2017-09-12T13:35:05.756Z,15.40
2017-09-12T13:37:34.552Z,14.90
2017-09-12T13:40:02.795Z,15.20
2017-09-12T13:42:31.735Z,15.43
2017-09-12T13:45:00.567Z,16.00
2017-09-12T13:47:29.252Z,15.30
2017-09-12T13:49:58.291Z,14.83
2017-09-12T13:52:27.139Z,16.37
2017-09-12T13:54:56.019Z,15.80
2017-09-12T13:57:25.955Z,15.00
2017-09-12T13:59:54.645Z,16.50
2017-09-12T14:02:23.466Z,15.73
2017-09-12T14:04:52.888Z,15.67
2017-09-12T14:07:22.308Z,15.40
2017-09-12T14:09:52.036Z,16.27
2017-09-12T14:12:21.027Z,16.20
2017-09-12T14:14:49.861Z,15.97
2017-09-12T14:17:18.511Z,16.00
2017-09-12T14:19:48.187Z,14.83
2017-09-12T14:22:17.683Z,14.07
2017-09-12T14:24:47.147Z,16.00
2017-09-12T14:27:16.145Z,16.40
2017-09-12T14:29:44.883Z,15.90
2017-09-12T14:32:14.447Z,16.07
2017-09-12T14:34:43.269Z,15.13
2017-09-12T14:37:11.952Z,16.17
2017-09-12T14:39:40.843Z,15.63
2017-09-12T14:42:09.890Z,16.10
2017-09-12T14:44:38.405Z,16.00
2017-09-12T14:47:07.012Z,15.20
2017-09-12T14:49:35.904Z,16.00
2017-09-12T14:52:04.791Z,16.17
2017-09-12T14:54:33.631Z,16.23
2017-09-12T14:57:02.334Z,17.13
2017-09-12T14:59:31.254Z,14.40
2017-09-12T15:02:00.819Z,15.03
2017-09-12T15:04:29.649Z,16.80
2017-09-12T15:06:58.281Z,15.60
2017-09-12T15:09:27.804Z,16.40
2017-09-12T15:11:56.298Z,16.67
2017-09-12T15:14:24.816Z,16.83
2017-09-12T15:16:53.855Z,16.97
2017-09-12T15:19:22.997Z,15.70
2017-09-12T15:21:51.680Z,17.63
2017-09-12T15:24:19.915Z,17.77
2017-09-12T15:26:48.975Z,17.27
2017-09-12T15:29:17.203Z,16.37
2017-09-12T15:31:45.868Z,17.80
2017-09-12T15:34:15.596Z,17.07
2017-09-12T15:36:44.492Z,16.60
2017-09-12T15:39:13.177Z,18.90
2017-09-12T15:41:42.755Z,17.50
2017-09-12T15:44:10.799Z,17.23
2017-09-12T15:46:40.279Z,17.50
2017-09-12T15:49:08.928Z,16.77
2017-09-12T15:51:38.088Z,17.67
2017-09-12T15:54:06.588Z,17.63
2017-09-12T15:56:35.391Z,19.13
2017-09-12T15:59:03.464Z,19.10
2017-09-12T16:01:31.916Z,18.73
2017-09-12T16:04:00.939Z,15.70
2017-09-12T16:06:29.664Z,18.63
2017-09-12T16:08:59.036Z,18.80
2017-09-12T16:11:27.896Z,17.00
2017-09-12T16:13:56.652Z,19.60
2017-09-12T16:16:25.055Z,16.90
2017-09-12T16:18:53.893Z,17.77
2017-09-12T16:21:23.051Z,18.60
2017-09-12T16:23:52.300Z,19.87
2017-09-12T16:26:21.756Z,17.57
2017-09-12T16:28:49.807Z,18.93
2017-09-12T16:31:18.449Z,17.60
2017-09-12T16:33:46.675Z,18.40
2017-09-12T16:36:15.195Z,18.30
2017-09-12T16:38:44.528Z,17.83
2017-09-12T16:41:14.079Z,16.17
2017-09-12T16:43:43.643Z,16.47
2017-09-12T16:46:13.401Z,18.67
2017-09-12T16:48:42.034Z,18.50
2017-09-12T16:51:11.249Z,16.70
2017-09-12T16:53:41.329Z,17.63
2017-09-12T16:56:09.968Z,18.40
2017-09-12T16:58:38.371Z,17.60
2017-09-12T17:01:07.254Z,18.90
2017-09-12T17:03:35.874Z,17.83
2017-09-12T17:06:04.509Z,18.97
2017-09-12T17:08:32.747Z,19.00
2017-09-12T17:11:00.877Z,18.93
2017-09-12T17:13:29.621Z,17.90
2017-09-12T17:15:59.225Z,18.40
2017-09-12T17:18:27.941Z,18.67
2017-09-12T17:20:55.996Z,18.90
2017-09-12T17:23:25.550Z,20.00
2017-09-12T17:25:54.315Z,20.07
2017-09-12T17:28:22.797Z,18.07
2017-09-12T17:30:51.496Z,18.87
2017-09-12T17:33:20.024Z,18.53
2017-09-12T17:35:48.753Z,17.80
2017-09-12T17:38:18.413Z,18.60
2017-09-12T17:40:46.514Z,18.20
2017-09-12T17:43:15.370Z,18.83
2017-09-12T17:45:44.243Z,17.23
2017-09-12T17:48:12.989Z,18.60
2017-09-12T17:50:42.277Z,19.00
2017-09-12T17:53:11.048Z,18.43
2017-09-12T17:55:39.984Z,16.90
2017-09-12T17:58:08.725Z,18.30
2017-09-12T18:00:37.415Z,19.57
2017-09-12T18:03:05.502Z,20.10
2017-09-12T18:05:34.339Z,19.60
2017-09-12T18:08:03.360Z,18.90
2017-09-12T18:10:31.835Z,17.80
2017-09-12T18:13:00.445Z,19.57
2017-09-12T18:15:29.441Z,19.73
2017-09-12T18:17:58.180Z,18.07
2017-09-12T18:20:27.068Z,19.00
2017-09-12T18:22:56.098Z,18.50
2017-09-12T18:25:24.577Z,19.40
2017-09-12T18:27:54.296Z,18.90
2017-09-12T18:30:23.294Z,18.63
2017-09-12T18:32:51.805Z,18.57
2017-09-12T18:35:20.436Z,17.67
2017-09-12T18:37:49.265Z,19.20
2017-09-12T18:40:17.328Z,19.17
2017-09-12T18:42:45.916Z,19.90
2017-09-12T18:45:14.098Z,17.20
2017-09-12T18:47:42.676Z,18.50
2017-09-12T18:50:11.360Z,18.00
2017-09-12T18:52:40.213Z,18.03
2017-09-12T18:55:08.676Z,16.47
2017-09-12T18:57:38.199Z,17.97
2017-09-12T19:00:06.427Z,18.17
2017-09-12T19:02:35.010Z,16.47
2017-09-12T19:05:03.473Z,19.27
2017-09-12T19:07:32.990Z,17.87
2017-09-12T19:10:01.880Z,19.10
2017-09-12T19:12:30.832Z,19.30
2017-09-12T19:15:00.625Z,17.70
2017-09-12T19:17:29.445Z,18.83
2017-09-12T19:19:57.991Z,17.77
2017-09-12T19:22:26.811Z,16.77
2017-09-12T19:24:56.183Z,19.50
2017-09-12T19:27:24.901Z,19.07
2017-09-12T19:29:54.176Z,17.23
2017-09-12T19:32:22.816Z,18.20
2017-09-12T19:34:51.299Z,19.23
2017-09-12T19:37:19.882Z,17.80
2017-09-12T19:39:49.259Z,18.17
2017-09-12T19:42:17.792Z,19.00
2017-09-12T19:44:46.019Z,17.40
2017-09-12T19:47:15.364Z,19.00
2017-09-12T19:49:43.412Z,17.70
2017-09-12T19:52:12.360Z,18.40
2017-09-12T19:54:41.076Z,18.30
2017-09-12T19:57:10.348Z,17.67
2017-09-12T19:59:39.276Z,17.83
2017-09-12T20:02:08.065Z,16.60
2017-09-12T20:04:36.130Z,17.47
2017-09-12T20:07:04.968Z,18.73
2017-09-12T20:09:33.580Z,18.97
2017-09-12T20:12:02.285Z,18.47
2017-09-12T20:14:31.943Z,17.83
2017-09-12T20:17:00.723Z,18.00
2017-09-12T20:19:29.213Z,17.30
2017-09-12T20:21:58.155Z,19.17
2017-09-12T20:24:27.709Z,16.60
2017-09-12T20:26:56.139Z,18.03
2017-09-12T20:29:25.871Z,17.70
2017-09-12T20:31:54.908Z,17.43
2017-09-12T20:34:30.376Z,18.20
2017-09-12T20:36:59.000Z,16.67
2017-09-12T20:39:27.420Z,17.97
2017-09-12T20:41:56.147Z,17.40
2017-09-12T20:44:24.726Z,16.57
2017-09-12T20:46:53.340Z,16.13
2017-09-12T20:49:22.296Z,17.57
2017-09-12T20:51:50.688Z,16.77
2017-09-12T20:54:19.851Z,17.30
2017-09-12T20:56:48.548Z,17.60
2017-09-12T20:59:17.256Z,18.77
2017-09-12T21:01:45.875Z,17.87
2017-09-12T21:04:15.347Z,18.67
2017-09-12T21:06:43.966Z,18.50
2017-09-12T21:09:12.378Z,20.47
2017-09-12T21:11:41.080Z,20.37
2017-09-12T21:14:09.688Z,20.03
2017-09-12T21:16:38.512Z,19.23
2017-09-12T21:19:07.224Z,19.43
2017-09-12T21:21:35.756Z,19.57
2017-09-12T21:24:04.909Z,20.80
2017-09-12T21:26:33.616Z,19.03
2017-09-12T21:29:02.220Z,21.73
2017-09-12T21:31:30.947Z,18.90
2017-09-12T21:34:00.120Z,20.70
2017-09-12T21:36:36.092Z,19.70
2017-09-12T21:39:05.850Z,20.77
2017-09-12T21:41:34.523Z,19.87
2017-09-12T21:44:03.005Z,20.33
2017-09-12T21:46:31.324Z,20.73
2017-09-12T21:49:00.257Z,20.97
2017-09-12T21:51:28.664Z,18.17
2017-09-12T21:53:58.596Z,21.10
2017-09-12T21:56:27.159Z,21.03
2017-09-12T21:58:55.693Z,19.40
2017-09-12T22:01:25.250Z,19.17
2017-09-12T22:03:53.800Z,20.47
2017-09-12T22:06:22.597Z,19.97
2017-09-12T22:08:51.676Z,20.00
2017-09-12T22:11:20.769Z,21.50
2017-09-12T22:13:49.871Z,20.93
2017-09-12T22:16:19.536Z,21.07
2017-09-12T22:18:47.913Z,20.37
2017-09-12T22:21:16.407Z,20.50
2017-09-12T22:23:45.221Z,19.33
2017-09-12T22:26:13.967Z,20.37
2017-09-12T22:28:42.503Z,20.47
2017-09-12T22:31:11.744Z,22.00
2017-09-12T22:33:40.259Z,20.67
2017-09-12T22:36:09.267Z,19.77
2017-09-12T22:38:38.034Z,21.63
2017-09-12T22:41:06.602Z,23.10
2017-09-12T22:43:35.983Z,23.00
2017-09-12T22:46:04.795Z,20.77
2017-09-12T22:48:33.456Z,23.07
2017-09-12T22:51:03.000Z,23.77
2017-09-12T22:53:31.958Z,22.60
2017-09-12T22:56:01.332Z,23.40
2017-09-12T22:58:30.048Z,21.53
2017-09-12T23:00:58.300Z,23.53
2017-09-12T23:03:26.864Z,22.73
2017-09-12T23:05:55.501Z,22.00
2017-09-12T23:08:23.640Z,24.50
2017-09-12T23:10:52.224Z,23.13
2017-09-12T23:13:20.970Z,24.90
2017-09-12T23:15:49.543Z,24.47
2017-09-12T23:18:18.161Z,25.40
2017-09-12T23:20:46.774Z,24.80
2017-09-12T23:23:15.596Z,28.07
2017-09-12T23:25:44.960Z,27.20
2017-09-12T23:28:13.588Z,27.57
2017-09-12T23:30:42.219Z,28.13
2017-09-12T23:33:10.796Z,24.10
2017-09-12T23:35:39.373Z,26.80
2017-09-12T23:38:08.343Z,25.20
2017-09-12T23:40:37.043Z,23.83
2017-09-12T23:43:05.657Z,24.33
2017-09-12T23:45:34.445Z,23.27
2017-09-12T23:48:03.116Z,25.63
2017-09-12T23:50:31.168Z,22.97
2017-09-12T23:52:59.915Z,23.83
2017-09-12T23:55:29.189Z,22.80
2017-09-12T23:57:57.797Z,21.83
